createdAt,value
2022-08-21T00:00:20.258Z,2.40
2022-08-21T00:02:59.773Z,2.22
2022-08-21T00:05:26.933Z,2.60
2022-08-21T00:07:53.815Z,3.00
2022-08-21T00:10:20.814Z,2.60
2022-08-21T00:12:48.236Z,2.40
2022-08-21T00:15:17.086Z,3.20
2022-08-21T00:17:43.926Z,3.00
2022-08-21T00:20:14.382Z,3.00
2022-08-21T00:22:41.265Z,2.42
2022-08-21T00:25:08.757Z,2.45
2022-08-21T00:27:35.761Z,2.85
2022-08-21T00:30:03.078Z,3.25
2022-08-21T00:32:29.951Z,2.92
2022-08-21T00:34:56.795Z,3.00
2022-08-21T00:37:23.762Z,3.58
2022-08-21T00:39:50.804Z,2.88
2022-08-21T00:42:17.973Z,2.75
2022-08-21T00:44:45.885Z,3.50
2022-08-21T00:47:12.780Z,3.03
2022-08-21T00:49:40.224Z,3.58
2022-08-21T00:52:08.729Z,2.88
2022-08-21T00:54:35.578Z,2.90
2022-08-21T00:57:06.570Z,3.58
2022-08-21T00:59:35.523Z,3.58
2022-08-21T01:02:02.682Z,2.50
2022-08-21T01:04:29.531Z,3.60
2022-08-21T01:06:56.393Z,3.10
2022-08-21T01:09:23.470Z,3.28
2022-08-21T01:11:50.329Z,3.28
2022-08-21T01:14:19.447Z,2.88
2022-08-21T01:16:47.732Z,3.13
2022-08-21T01:19:15.722Z,3.17
2022-08-21T01:21:43.962Z,3.42
2022-08-21T01:24:11.342Z,3.58
2022-08-21T01:26:38.233Z,3.65
2022-08-21T01:29:27.027Z,3.30
2022-08-21T01:31:53.925Z,3.22
2022-08-21T01:34:20.885Z,3.55
2022-08-21T01:36:47.962Z,3.65
2022-08-21T01:39:15.527Z,3.70
2022-08-21T01:41:42.490Z,4.30
2022-08-21T01:44:09.323Z,4.00
2022-08-21T01:46:36.218Z,3.75
2022-08-21T01:49:03.526Z,3.10
2022-08-21T01:51:30.382Z,2.97
2022-08-21T01:53:57.213Z,3.55
2022-08-21T01:56:24.022Z,3.83
2022-08-21T01:58:50.887Z,4.05
2022-08-21T02:01:17.876Z,4.15
2022-08-21T02:03:44.835Z,3.65
2022-08-21T02:06:14.851Z,3.80
2022-08-21T02:08:41.834Z,4.00
2022-08-21T02:11:08.753Z,4.70
2022-08-21T02:13:35.606Z,4.63
2022-08-21T02:16:02.634Z,4.57
2022-08-21T02:18:30.630Z,4.55
2022-08-21T02:20:57.485Z,4.50
2022-08-21T02:23:26.953Z,4.60
2022-08-21T02:25:55.927Z,4.80
2022-08-21T02:28:22.829Z,4.55
2022-08-21T02:30:49.756Z,4.90
2022-08-21T02:33:16.930Z,4.40
2022-08-21T02:35:44.741Z,5.47
2022-08-21T02:38:14.006Z,5.05
2022-08-21T02:40:43.933Z,4.95
2022-08-21T02:43:16.367Z,5.03
2022-08-21T02:45:43.526Z,4.68
2022-08-21T02:48:11.639Z,4.93
2022-08-21T02:50:43.542Z,5.05
2022-08-21T02:53:11.406Z,5.30
2022-08-21T02:55:38.759Z,5.30
2022-08-21T02:58:06.805Z,5.45
2022-08-21T03:00:34.538Z,4.97
2022-08-21T03:03:01.381Z,5.50
2022-08-21T03:05:29.176Z,6.30
2022-08-21T03:07:56.142Z,4.25
2022-08-21T03:10:23.134Z,4.82
2022-08-21T03:12:50.182Z,4.85
2022-08-21T03:15:18.286Z,5.18
2022-08-21T03:17:45.923Z,4.70
2022-08-21T03:20:20.885Z,5.40
2022-08-21T03:22:52.172Z,5.55
2022-08-21T03:25:20.186Z,5.38
2022-08-21T03:27:57.040Z,5.78
2022-08-21T03:30:26.161Z,5.63
2022-08-21T03:32:53.774Z,5.22
2022-08-21T03:35:22.634Z,5.10
2022-08-21T03:37:49.486Z,5.28
2022-08-21T03:40:17.942Z,5.80
2022-08-21T03:42:47.957Z,5.10
2022-08-21T03:45:16.118Z,6.00
2022-08-21T03:47:59.895Z,5.38
2022-08-21T03:50:29.607Z,5.43
2022-08-21T03:52:57.037Z,5.75
2022-08-21T03:55:25.094Z,5.43
2022-08-21T03:57:52.138Z,5.35
2022-08-21T04:00:20.007Z,5.60
2022-08-21T04:02:46.979Z,5.75
2022-08-21T04:05:14.538Z,5.53
2022-08-21T04:07:41.534Z,6.13
2022-08-21T04:10:08.885Z,6.30
2022-08-21T04:12:35.753Z,5.07
2022-08-21T04:15:03.068Z,5.50
2022-08-21T04:17:29.991Z,6.25
2022-08-21T04:19:57.486Z,5.88
2022-08-21T04:22:24.458Z,5.88
2022-08-21T04:24:51.296Z,6.20
2022-08-21T04:27:18.135Z,6.00
2022-08-21T04:29:44.982Z,6.20
2022-08-21T04:32:11.853Z,5.95
2022-08-21T04:34:38.766Z,6.43
2022-08-21T04:37:05.713Z,6.28
2022-08-21T04:39:32.533Z,6.65
2022-08-21T04:41:59.342Z,5.72
2022-08-21T04:44:26.293Z,5.82
2022-08-21T04:46:53.232Z,6.50
2022-08-21T04:49:20.050Z,6.43
2022-08-21T04:51:49.786Z,5.80
2022-08-21T04:54:21.482Z,6.13
2022-08-21T04:56:53.680Z,5.85
2022-08-21T04:59:23.649Z,6.97
2022-08-21T05:01:50.675Z,6.88
2022-08-21T05:04:19.129Z,6.75
2022-08-21T05:06:47.694Z,6.43
2022-08-21T05:09:15.859Z,6.72
2022-08-21T05:11:43.763Z,6.85
2022-08-21T05:14:12.531Z,6.35
2022-08-21T05:16:39.528Z,6.40
2022-08-21T05:19:07.098Z,7.38
2022-08-21T05:21:35.186Z,6.88
2022-08-21T05:24:02.113Z,6.22
2022-08-21T05:26:28.964Z,6.90
2022-08-21T05:28:55.847Z,7.68
2022-08-21T05:31:24.221Z,6.28
2022-08-21T05:33:52.127Z,7.13
2022-08-21T05:36:19.785Z,6.13
2022-08-21T05:38:46.897Z,6.57
2022-08-21T05:41:13.968Z,6.68
2022-08-21T05:43:40.846Z,7.63
2022-08-21T05:46:07.953Z,7.07
2022-08-21T05:48:34.940Z,6.38
2022-08-21T05:51:09.781Z,6.70
2022-08-21T05:53:36.710Z,7.05
2022-08-21T05:56:04.901Z,6.22
2022-08-21T05:58:33.733Z,6.82
2022-08-21T06:01:00.903Z,7.22
2022-08-21T06:03:33.606Z,6.57
2022-08-21T06:06:00.577Z,7.32
2022-08-21T06:08:27.883Z,6.57
2022-08-21T06:10:55.859Z,6.85
2022-08-21T06:13:23.285Z,7.75
2022-08-21T06:15:50.511Z,6.63
2022-08-21T06:18:17.539Z,6.80
2022-08-21T06:20:44.467Z,6.05
2022-08-21T06:23:11.294Z,6.63
2022-08-21T06:25:38.153Z,6.43
2022-08-21T06:28:07.011Z,6.10
2022-08-21T06:30:33.951Z,6.55
2022-08-21T06:33:01.141Z,5.88
2022-08-21T06:35:30.031Z,6.40
2022-08-21T06:37:58.172Z,6.38
2022-08-21T06:40:25.530Z,6.15
2022-08-21T06:42:52.811Z,6.10
2022-08-21T06:45:19.698Z,6.88
2022-08-21T06:47:46.514Z,6.20
2022-08-21T06:50:13.669Z,6.30
2022-08-21T06:52:41.198Z,6.90
2022-08-21T06:55:09.182Z,6.80
2022-08-21T06:57:36.031Z,6.38
2022-08-21T07:00:05.761Z,6.07
2022-08-21T07:02:34.536Z,5.25
2022-08-21T07:05:01.550Z,5.32
2022-08-21T07:07:28.375Z,5.53
2022-08-21T07:09:55.209Z,5.70
2022-08-21T07:12:22.123Z,6.20
2022-08-21T07:14:49.691Z,5.45
2022-08-21T07:17:16.572Z,5.93
2022-08-21T07:19:43.466Z,5.85
2022-08-21T07:22:10.346Z,5.88
2022-08-21T07:24:37.187Z,6.40
2022-08-21T07:27:08.218Z,5.95
2022-08-21T07:29:36.754Z,5.05
2022-08-21T07:32:03.854Z,5.00
2022-08-21T07:34:31.095Z,5.22
2022-08-21T07:36:58.990Z,5.30
2022-08-21T07:39:25.957Z,4.88
2022-08-21T07:41:52.792Z,4.95
2022-08-21T07:44:19.671Z,4.72
2022-08-21T07:46:46.510Z,3.72
2022-08-21T07:49:13.559Z,5.15
2022-08-21T07:51:40.427Z,4.88
2022-08-21T07:54:07.428Z,5.50
2022-08-21T07:56:34.296Z,5.32
2022-08-21T07:59:01.224Z,4.38
2022-08-21T08:01:28.132Z,5.20
2022-08-21T08:03:56.012Z,5.93
2022-08-21T08:06:24.110Z,4.00
2022-08-21T08:08:51.021Z,5.18
2022-08-21T08:11:17.856Z,5.25
2022-08-21T08:13:46.560Z,4.63
2022-08-21T08:16:13.537Z,4.35
2022-08-21T08:18:40.382Z,4.28
2022-08-21T08:21:07.343Z,3.85
2022-08-21T08:23:34.339Z,4.40
2022-08-21T08:26:03.377Z,3.45
2022-08-21T08:28:31.442Z,4.63
2022-08-21T08:30:58.531Z,3.38
2022-08-21T08:33:25.381Z,3.45
2022-08-21T08:35:52.603Z,3.75
2022-08-21T08:38:21.439Z,3.15
2022-08-21T08:41:16.876Z,2.78
2022-08-21T08:43:45.985Z,3.28
2022-08-21T08:46:16.391Z,3.05
2022-08-21T08:48:58.431Z,4.13
2022-08-21T08:51:53.176Z,2.55
2022-08-21T08:54:32.609Z,2.25
2022-08-21T08:57:03.346Z,2.60
2022-08-21T08:59:43.796Z,2.65
2022-08-21T09:02:12.739Z,2.53
2022-08-21T09:04:40.083Z,2.78
2022-08-21T09:07:06.962Z,2.95
2022-08-21T09:09:58.494Z,2.83
2022-08-21T09:12:39.055Z,2.90
2022-08-21T09:15:37.067Z,2.30
2022-08-21T09:18:13.331Z,2.60
2022-08-21T09:20:56.616Z,2.35
2022-08-21T09:23:57.390Z,2.50
2022-08-21T09:26:26.114Z,2.45
2022-08-21T09:28:53.974Z,3.13
2022-08-21T09:31:29.811Z,2.50
2022-08-21T09:34:05.365Z,2.45
2022-08-21T09:36:52.489Z,2.88
2022-08-21T09:39:30.801Z,2.65
2022-08-21T09:42:02.137Z,2.95
2022-08-21T09:44:31.062Z,3.17
2022-08-21T09:46:57.957Z,2.30
2022-08-21T09:49:31.863Z,2.40
2022-08-21T09:51:59.654Z,2.97
2022-08-21T09:54:37.972Z,2.67
2022-08-21T09:57:29.240Z,2.53
2022-08-21T09:59:56.287Z,2.10
2022-08-21T10:02:30.518Z,2.15
2022-08-21T10:05:02.086Z,2.63
2022-08-21T10:07:30.769Z,2.55
2022-08-21T10:10:31.167Z,2.35
2022-08-21T10:13:13.014Z,2.42
2022-08-21T10:15:55.913Z,2.22
2022-08-21T10:18:37.726Z,2.03
2022-08-21T10:21:31.279Z,2.20
2022-08-21T10:24:11.221Z,1.92
2022-08-21T10:27:21.914Z,2.53
2022-08-21T10:29:53.302Z,2.50
2022-08-21T10:32:32.645Z,2.92
2022-08-21T10:35:33.226Z,3.10
2022-08-21T10:38:50.827Z,3.05
2022-08-21T10:41:37.694Z,2.30
2022-08-21T10:44:40.724Z,2.13
2022-08-21T10:47:09.921Z,2.50
2022-08-21T10:49:51.498Z,2.53
2022-08-21T10:52:36.801Z,2.85
2022-08-21T10:55:19.026Z,2.08
2022-08-21T10:57:57.908Z,2.05
2022-08-21T11:00:35.203Z,3.00
2022-08-21T11:03:06.382Z,3.70
2022-08-21T11:05:50.163Z,2.80
2022-08-21T11:08:27.762Z,3.35
2022-08-21T11:11:09.719Z,2.63
2022-08-21T11:13:58.557Z,3.25
2022-08-21T11:16:37.598Z,2.50
2022-08-21T11:19:23.608Z,2.42
2022-08-21T11:22:16.985Z,2.58
2022-08-21T11:24:59.123Z,2.78
2022-08-21T11:27:54.185Z,2.65
2022-08-21T11:30:21.223Z,2.75
2022-08-21T11:33:23.555Z,3.20
2022-08-21T11:36:00.290Z,2.20
2022-08-21T11:38:39.837Z,2.15
2022-08-21T11:41:27.789Z,2.30
2022-08-21T11:44:03.643Z,2.58
2022-08-21T11:46:34.101Z,3.03
2022-08-21T11:49:12.847Z,2.10
2022-08-21T11:51:51.558Z,2.80
2022-08-21T11:54:24.507Z,2.17
2022-08-21T11:57:21.797Z,2.58
2022-08-21T12:00:17.907Z,2.33
2022-08-21T12:02:48.358Z,2.28
2022-08-21T12:05:32.901Z,2.22
2022-08-21T12:08:28.634Z,2.47
2022-08-21T12:11:07.086Z,2.67
2022-08-21T12:13:40.215Z,2.97
2022-08-21T12:16:16.613Z,2.28
2022-08-21T12:18:43.716Z,2.75
2022-08-21T12:21:27.658Z,2.45
2022-08-21T12:24:06.610Z,2.42
2022-08-21T12:26:47.704Z,2.58
2022-08-21T12:29:23.228Z,2.63
2022-08-21T12:32:15.905Z,2.60
2022-08-21T12:35:01.926Z,2.55
2022-08-21T12:37:42.177Z,3.05
2022-08-21T12:40:27.535Z,2.85
2022-08-21T12:42:58.887Z,3.38
2022-08-21T12:45:33.369Z,2.63
2022-08-21T12:48:03.373Z,2.42
2022-08-21T12:50:42.621Z,2.40
2022-08-21T12:53:21.079Z,2.40
2022-08-21T12:55:48.019Z,2.45
2022-08-21T12:58:19.868Z,2.90
2022-08-21T13:01:14.126Z,2.65
2022-08-21T13:03:41.511Z,2.65
2022-08-21T13:06:10.664Z,3.03
2022-08-21T13:08:40.954Z,2.92
2022-08-21T13:11:13.459Z,2.40
2022-08-21T13:13:47.005Z,2.53
2022-08-21T13:16:24.114Z,2.88
2022-08-21T13:18:59.873Z,2.22
2022-08-21T13:21:31.849Z,2.92
2022-08-21T13:24:42.343Z,2.40
2022-08-21T13:27:24.287Z,2.25
2022-08-21T13:30:19.969Z,3.42
2022-08-21T13:32:49.622Z,2.45
2022-08-21T13:35:31.663Z,3.08
2022-08-21T13:37:58.498Z,2.53
2022-08-21T13:40:34.094Z,2.58
2022-08-21T13:43:01.172Z,2.35
2022-08-21T13:45:32.260Z,3.10
2022-08-21T13:47:59.081Z,2.67
2022-08-21T13:50:31.074Z,2.40
2022-08-21T13:53:02.117Z,2.42
2022-08-21T13:55:40.491Z,2.90
2022-08-21T13:58:07.581Z,2.67
2022-08-21T14:00:36.634Z,2.65
2022-08-21T14:03:10.008Z,2.50
2022-08-21T14:05:44.118Z,2.70
2022-08-21T14:08:15.827Z,2.40
2022-08-21T14:10:44.895Z,2.85
2022-08-21T14:13:38.180Z,2.60
2022-08-21T14:16:15.542Z,2.90
2022-08-21T14:18:51.106Z,2.17
2022-08-21T14:21:27.107Z,2.33
2022-08-21T14:24:03.150Z,2.58
2022-08-21T14:26:30.053Z,2.40
2022-08-21T14:28:59.910Z,2.50
2022-08-21T14:31:30.535Z,2.60
2022-08-21T14:33:57.662Z,2.83
2022-08-21T14:36:24.474Z,3.05
2022-08-21T14:38:51.325Z,2.95
2022-08-21T14:41:22.581Z,3.40
2022-08-21T14:43:59.819Z,3.60
2022-08-21T14:46:39.160Z,3.00
2022-08-21T14:49:30.073Z,2.72
2022-08-21T14:51:58.704Z,3.03
2022-08-21T14:54:31.661Z,2.90
2022-08-21T14:57:01.647Z,3.03
2022-08-21T14:59:28.507Z,3.20
2022-08-21T15:01:57.212Z,2.88
2022-08-21T15:04:24.217Z,3.13
2022-08-21T15:06:51.098Z,2.83
2022-08-21T15:09:17.905Z,3.53
2022-08-21T15:11:44.793Z,2.70
2022-08-21T15:14:13.958Z,2.80
2022-08-21T15:16:40.779Z,3.20
2022-08-21T15:19:07.670Z,2.50
2022-08-21T15:21:34.518Z,2.55
2022-08-21T15:24:01.593Z,2.95
2022-08-21T15:26:28.506Z,3.20
2022-08-21T15:28:55.310Z,2.72
2022-08-21T15:31:22.198Z,2.58
2022-08-21T15:33:49.103Z,3.08
2022-08-21T15:36:17.278Z,2.88
2022-08-21T15:38:45.709Z,3.20
2022-08-21T15:41:12.706Z,3.92
2022-08-21T15:43:46.883Z,2.85
2022-08-21T15:46:14.977Z,2.88
2022-08-21T15:48:41.811Z,3.08
2022-08-21T15:51:09.538Z,3.20
2022-08-21T15:53:39.507Z,2.60
2022-08-21T15:56:07.366Z,3.13
2022-08-21T15:58:34.374Z,3.45
2022-08-21T16:01:01.418Z,2.95
2022-08-21T16:03:28.372Z,2.75
2022-08-21T16:05:57.742Z,2.95
2022-08-21T16:08:25.331Z,2.92
2022-08-21T16:10:53.201Z,3.13
2022-08-21T16:13:24.947Z,3.22
2022-08-21T16:15:51.913Z,3.45
2022-08-21T16:18:19.290Z,3.53
2022-08-21T16:20:46.292Z,3.60
2022-08-21T16:23:13.211Z,2.80
2022-08-21T16:25:40.518Z,3.22
2022-08-21T16:28:08.883Z,9.30
2022-08-21T16:30:38.399Z,3.40
2022-08-21T16:33:06.193Z,2.90
2022-08-21T16:35:33.466Z,4.53
2022-08-21T16:38:00.458Z,3.70
2022-08-21T16:40:28.569Z,6.55
2022-08-21T16:42:56.297Z,4.40
2022-08-21T16:45:23.276Z,3.83
2022-08-21T16:47:51.320Z,4.13
2022-08-21T16:50:22.269Z,2.83
2022-08-21T16:52:49.110Z,3.20
2022-08-21T16:55:16.214Z,3.05
2022-08-21T16:57:43.140Z,3.30
2022-08-21T17:00:14.361Z,3.58
2022-08-21T17:02:47.798Z,3.80
2022-08-21T17:05:14.893Z,3.58
2022-08-21T17:07:42.278Z,3.78
2022-08-21T17:10:09.897Z,4.28
2022-08-21T17:12:36.783Z,3.72
2022-08-21T17:15:09.419Z,4.15
2022-08-21T17:17:36.294Z,2.88
2022-08-21T17:20:03.974Z,3.65
2022-08-21T17:22:30.790Z,3.38
2022-08-21T17:24:57.715Z,3.58
2022-08-21T17:27:26.826Z,3.13
2022-08-21T17:29:54.685Z,3.63
2022-08-21T17:32:21.824Z,3.40
2022-08-21T17:34:48.639Z,2.92
2022-08-21T17:37:15.661Z,3.92
2022-08-21T17:39:42.654Z,3.40
2022-08-21T17:42:11.250Z,3.10
2022-08-21T17:44:39.612Z,3.80
2022-08-21T17:47:06.958Z,3.50
2022-08-21T17:49:33.802Z,4.20
2022-08-21T17:52:00.602Z,3.15
2022-08-21T17:54:28.246Z,3.28
2022-08-21T17:56:56.263Z,3.05
2022-08-21T17:59:23.638Z,3.08
2022-08-21T18:01:50.811Z,3.53
2022-08-21T18:04:17.677Z,3.03
2022-08-21T18:06:44.773Z,3.17
2022-08-21T18:09:12.819Z,3.40
2022-08-21T18:11:39.930Z,2.95
2022-08-21T18:14:07.911Z,3.25
2022-08-21T18:16:35.338Z,3.45
2022-08-21T18:19:02.424Z,3.72
2022-08-21T18:21:30.910Z,2.63
2022-08-21T18:23:57.834Z,3.50
2022-08-21T18:26:29.819Z,3.90
2022-08-21T18:28:59.832Z,3.83
2022-08-21T18:31:30.864Z,3.45
2022-08-21T18:33:58.892Z,3.50
2022-08-21T18:36:27.065Z,3.58
2022-08-21T18:38:54.717Z,2.60
2022-08-21T18:41:22.017Z,3.25
2022-08-21T18:43:48.914Z,3.45
2022-08-21T18:46:16.269Z,3.60
2022-08-21T18:48:43.533Z,3.45
2022-08-21T18:51:12.350Z,2.97
2022-08-21T18:53:39.233Z,3.08
2022-08-21T18:56:06.718Z,3.28
2022-08-21T18:58:33.874Z,2.95
2022-08-21T19:01:01.002Z,2.95
2022-08-21T19:03:27.944Z,3.03
2022-08-21T19:05:54.943Z,3.13
2022-08-21T19:08:23.265Z,2.60
2022-08-21T19:10:51.273Z,2.50
2022-08-21T19:13:19.601Z,3.55
2022-08-21T19:15:49.903Z,3.33
2022-08-21T19:18:19.391Z,2.92
2022-08-21T19:20:48.176Z,2.70
2022-08-21T19:23:15.953Z,2.67
2022-08-21T19:25:44.766Z,2.38
2022-08-21T19:28:13.651Z,3.38
2022-08-21T19:30:42.197Z,3.40
2022-08-21T19:36:02.681Z,3.13
2022-08-21T19:38:29.607Z,2.78
2022-08-21T19:40:56.576Z,2.95
2022-08-21T19:43:23.581Z,3.75
2022-08-21T19:45:53.164Z,3.25
2022-08-21T19:48:20.118Z,3.42
2022-08-21T19:50:47.032Z,3.30
2022-08-21T19:53:14.037Z,4.00
2022-08-21T19:55:44.954Z,4.05
2022-08-21T19:58:36.977Z,4.32
2022-08-21T20:01:05.686Z,5.15
2022-08-21T20:03:39.368Z,4.35
2022-08-21T20:06:10.174Z,4.13
2022-08-21T20:08:37.153Z,4.78
2022-08-21T20:11:04.512Z,5.65
2022-08-21T20:13:33.849Z,4.28
2022-08-21T20:16:02.252Z,4.63
2022-08-21T20:18:29.502Z,4.80
2022-08-21T20:20:56.538Z,3.65
2022-08-21T20:23:30.253Z,3.78
2022-08-21T20:26:00.722Z,3.78
2022-08-21T20:28:28.602Z,3.90
2022-08-21T20:30:55.918Z,3.85
2022-08-21T20:33:23.691Z,3.90
2022-08-21T20:35:52.240Z,4.15
2022-08-21T20:38:19.340Z,4.28
2022-08-21T20:40:50.201Z,4.28
2022-08-21T20:43:17.226Z,3.72
2022-08-21T20:45:44.083Z,3.95
2022-08-21T20:48:14.828Z,4.72
2022-08-21T20:50:49.249Z,4.30
2022-08-21T20:53:51.181Z,4.30
2022-08-21T20:56:30.168Z,4.05
2022-08-21T20:59:01.999Z,4.20
2022-08-21T21:01:30.126Z,4.30
2022-08-21T21:04:20.128Z,4.10
2022-08-21T21:06:49.812Z,4.60
2022-08-21T21:09:28.442Z,5.10
2022-08-21T21:11:59.415Z,4.10
2022-08-21T21:14:47.263Z,4.63
2022-08-21T21:17:18.291Z,5.10
2022-08-21T21:20:08.003Z,4.50
2022-08-21T21:22:49.543Z,5.13
2022-08-21T21:25:19.432Z,5.20
2022-08-21T21:27:50.984Z,4.75
2022-08-21T21:33:07.591Z,4.70
2022-08-21T21:35:49.019Z,4.18
2022-08-21T21:38:22.850Z,4.80
2022-08-21T21:41:07.888Z,3.97
2022-08-21T21:43:56.417Z,4.18
2022-08-21T21:46:48.447Z,4.35
2022-08-21T21:49:44.638Z,4.68
2022-08-21T21:52:32.174Z,4.47
2022-08-21T21:55:23.912Z,4.68
2022-08-21T21:57:58.672Z,4.35
2022-08-21T22:00:27.475Z,4.22
2022-08-21T22:02:54.966Z,4.07
2022-08-21T22:05:39.982Z,4.10
2022-08-21T22:08:12.873Z,4.70
2022-08-21T22:11:23.970Z,4.35
2022-08-21T22:14:13.833Z,3.95
2022-08-21T22:16:41.198Z,4.47
2022-08-21T22:19:25.177Z,3.80
2022-08-21T22:22:21.887Z,4.57
2022-08-21T22:24:50.884Z,4.00
2022-08-21T22:27:23.814Z,4.32
2022-08-21T22:29:56.023Z,3.95
2022-08-21T22:32:45.869Z,4.55
2022-08-21T22:35:23.879Z,3.80
2022-08-21T22:37:52.918Z,4.40
2022-08-21T22:40:26.167Z,4.45
2022-08-21T22:43:16.121Z,4.20
2022-08-21T22:46:06.047Z,4.68
2022-08-21T22:48:37.188Z,4.40
2022-08-21T22:51:07.791Z,4.32
2022-08-21T22:53:36.650Z,4.63
2022-08-21T22:56:04.898Z,4.20
2022-08-21T23:01:27.468Z,4.22
2022-08-21T23:03:58.466Z,4.53
2022-08-21T23:06:31.545Z,4.18
2022-08-21T23:08:58.501Z,3.88
2022-08-21T23:11:37.285Z,5.28
2022-08-21T23:14:04.170Z,4.47
2022-08-21T23:16:50.960Z,4.20
2022-08-21T23:19:20.881Z,4.35
2022-08-21T23:22:09.506Z,4.13
2022-08-21T23:25:00.514Z,4.53
2022-08-21T23:27:32.030Z,4.68
2022-08-21T23:30:14.842Z,5.00
2022-08-21T23:32:52.306Z,4.40
2022-08-21T23:36:00.439Z,5.13
2022-08-21T23:38:34.394Z,4.32
2022-08-21T23:41:34.093Z,4.70
2022-08-21T23:47:11.451Z,4.30
2022-08-21T23:49:54.037Z,3.97
2022-08-21T23:52:51.668Z,4.07
2022-08-21T23:58:36.362Z,4.60
